Time;durP1;ratioP1;P1;durP2;ratioP2;P2;SDS_P1;SDS_P2;PMS_P1;PMS_P2;Temp;Humidity;BMP_temperature;BMP_pressure;BME280_temperature;BME280_humidity;BME280_pressure;Samples;Min_cycle;Max_cycle;Signal;HPM_P1;HPM_P2
2022/02/14 00:02:10;;;;;;;3.53;3.03;;;;;;;7.40;59.22;100152.41;5014418;28;20214;-77
2022/02/14 00:04:36;;;;;;;3.63;2.80;;;;;;;7.38;58.46;100147.22;5014350;28;20209;-78
2022/02/14 00:07:03;;;;;;;5.77;3.03;;;;;;;7.41;58.72;100141.97;5014379;28;20267;-78
2022/02/14 00:09:30;;;;;;;3.27;2.90;;;;;;;7.43;59.90;100147.16;5014127;28;20233;-78
2022/02/14 00:11:57;;;;;;;4.87;3.13;;;;;;;7.45;59.30;100154.09;5014506;28;20210;-78
2022/02/14 00:14:24;;;;;;;3.30;3.10;;;;;;;7.49;58.13;100167.88;5014041;28;20586;-78
2022/02/14 00:16:50;;;;;;;4.83;2.93;;;;;;;7.52;58.39;100173.88;5014031;28;20681;-77
2022/02/14 00:19:17;;;;;;;3.70;2.60;;;;;;;7.51;58.83;100155.72;5013284;28;20245;-77
2022/02/14 00:21:43;;;;;;;2.97;2.50;;;;;;;7.52;58.76;100150.50;5013712;28;20206;-79
2022/02/14 00:24:10;;;;;;;4.83;3.20;;;;;;;7.46;59.46;100137.59;5013801;28;20639;-79
2022/02/14 00:26:36;;;;;;;4.57;2.83;;;;;;;7.43;59.51;100123.78;5013945;28;20210;-79
2022/02/14 00:29:04;;;;;;;3.27;2.97;;;;;;;7.41;60.19;100109.97;5013944;28;20229;-77
2022/02/14 00:31:31;;;;;;;4.30;3.27;;;;;;;7.36;60.41;100107.44;5013397;28;20248;-76
2022/02/14 00:33:57;;;;;;;3.83;3.37;;;;;;;7.30;60.36;100084.13;5013399;28;20264;-78
2022/02/14 00:36:24;;;;;;;4.00;2.87;;;;;;;7.30;60.71;100079.78;5014051;28;20229;-77
2022/02/14 00:38:50;;;;;;;8.43;3.03;;;;;;;7.24;60.61;100071.22;5013640;28;20287;-78
2022/02/14 00:41:17;;;;;;;4.77;3.30;;;;;;;7.26;60.41;100056.50;5013386;28;20263;-78
2022/02/14 00:43:43;;;;;;;4.73;3.20;;;;;;;7.21;60.97;100066.06;5013441;28;20207;-78
2022/02/14 00:46:11;;;;;;;5.20;3.17;;;;;;;7.07;61.20;100035.91;5013119;28;20693;-78
2022/02/14 00:48:37;;;;;;;4.43;2.97;;;;;;;7.08;60.37;100045.44;5013105;28;20226;-79
2022/02/14 00:51:04;;;;;;;5.20;2.73;;;;;;;7.11;60.70;100055.75;5013116;28;20212;-79
2022/02/14 00:53:30;;;;;;;5.07;3.10;;;;;;;7.13;60.73;100050.56;5013567;28;20256;-78
2022/02/14 00:55:56;;;;;;;3.40;3.10;;;;;;;7.14;59.84;100042.75;5013416;28;20750;-78
2022/02/14 00:58:23;;;;;;;4.33;2.77;;;;;;;7.05;62.01;100027.28;5013264;28;20709;-78
2022/02/14 01:00:49;;;;;;;5.77;3.07;;;;;;;7.03;60.68;100023.84;5013140;28;20213;-78
2022/02/14 01:03:17;;;;;;;5.90;2.73;;;;;;;6.96;62.03;100002.31;5013081;28;20209;-78
2022/02/14 01:05:43;;;;;;;5.83;2.77;;;;;;;6.96;62.35;99993.69;5012543;28;20252;-78
2022/02/14 01:08:09;;;;;;;4.80;3.00;;;;;;;6.92;61.38;100005.81;5013223;28;20233;-78
2022/02/14 01:10:36;;;;;;;3.87;3.13;;;;;;;6.94;61.89;99979.88;5012853;28;20214;-78
2022/02/14 01:13:03;;;;;;;4.47;2.70;;;;;;;6.91;62.12;99961.72;5013099;28;20260;-78
2022/02/14 01:15:29;;;;;;;3.50;2.93;;;;;;;6.88;61.28;99967.81;5013057;28;20267;-77
2022/02/14 01:17:56;;;;;;;4.87;2.90;;;;;;;6.94;59.95;99995.44;5013015;28;20205;-79
2022/02/14 01:20:24;;;;;;;4.50;3.20;;;;;;;6.98;60.55;99994.53;5011945;28;20263;-79
2022/02/14 01:22:50;;;;;;;3.80;3.37;;;;;;;7.03;59.99;100020.41;5012635;28;20206;-78
2022/02/14 01:25:17;;;;;;;3.43;3.10;;;;;;;7.09;59.44;100026.38;5012353;28;20217;-77
2022/02/14 01:27:43;;;;;;;2.90;2.13;;;;;;;7.16;58.63;100024.59;5012751;28;20208;-77
2022/02/14 01:30:12;;;;;;;3.17;2.87;;;;;;;7.18;59.51;100033.22;5012450;28;20248;-77
2022/02/14 01:32:38;;;;;;;3.30;2.47;;;;;;;7.18;59.99;100017.63;5012762;28;20210;-77
2022/02/14 01:35:06;;;;;;;2.77;2.57;;;;;;;7.19;59.70;100021.09;5012528;28;20212;-79
2022/02/14 01:37:36;;;;;;;4.73;2.70;;;;;;;7.19;59.40;100028.88;5012383;28;20236;-77
2022/02/14 01:40:03;;;;;;;3.70;2.83;;;;;;;7.18;59.50;100016.78;5012305;28;20239;-78
2022/02/14 01:42:29;;;;;;;4.53;3.13;;;;;;;7.15;59.45;100015.94;5012698;28;20210;-77
2022/02/14 01:44:56;;;;;;;3.80;3.10;;;;;;;7.16;59.45;100012.47;5012336;28;20214;-79
2022/02/14 01:47:24;;;;;;;3.97;3.20;;;;;;;7.18;59.53;99998.63;5012677;28;20236;-78
2022/02/14 01:49:52;;;;;;;5.57;3.30;;;;;;;7.13;59.59;100015.06;5011540;28;20601;-78
2022/02/14 01:52:19;;;;;;;4.80;3.53;;;;;;;7.17;60.15;100002.94;5012421;28;20271;-78
2022/02/14 01:54:49;;;;;;;4.80;3.23;;;;;;;7.15;60.01;99994.31;5011980;28;20758;-78
2022/02/14 01:57:17;;;;;;;7.40;3.07;;;;;;;7.16;59.86;99999.47;5012177;28;20766;-77
2022/02/14 01:59:44;;;;;;;5.63;3.17;;;;;;;7.15;59.61;99996.91;5011980;28;20234;-78
2022/02/14 02:02:12;;;;;;;3.33;3.03;;;;;;;7.15;60.27;99989.13;5012405;28;20210;-76
2022/02/14 02:04:41;;;;;;;5.50;3.00;;;;;;;7.16;59.97;99972.69;5011618;28;20210;-78
2022/02/14 02:07:08;;;;;;;4.23;3.23;;;;;;;7.13;60.03;99985.69;5012290;28;20213;-78
2022/02/14 02:09:34;;;;;;;3.57;2.50;;;;;;;7.14;59.48;99977.88;5011587;28;20602;-78
2022/02/14 02:14:48;;;;;;;3.20;2.43;;;;;;;7.10;60.69;99967.56;5011950;28;20190;-77
2022/02/14 02:17:14;;;;;;;3.27;2.50;;;;;;;7.05;60.26;99969.34;5011214;28;20282;-77
2022/02/14 02:19:40;;;;;;;4.17;3.17;;;;;;;7.01;60.44;99968.50;5011092;28;20276;-79
2022/02/14 02:22:07;;;;;;;4.57;2.80;;;;;;;7.01;60.37;99954.69;5011925;28;20648;-78
2022/02/14 02:24:42;;;;;;;2.77;2.57;;;;;;;7.06;60.44;99958.94;5011665;28;20209;-78
2022/02/14 02:27:08;;;;;;;3.23;2.70;;;;;;;7.06;60.72;99943.38;5011764;28;20741;-77
2022/02/14 02:29:37;;;;;;;4.53;3.10;;;;;;;7.04;60.76;99939.94;5011272;28;20723;-77
2022/02/14 02:32:05;;;;;;;4.23;2.87;;;;;;;7.05;60.24;99938.19;5011793;28;20250;-78
2022/02/14 02:34:32;;;;;;;4.10;2.77;;;;;;;7.00;60.92;99943.47;5011685;28;20217;-79
2022/02/14 02:36:59;;;;;;;4.67;3.30;;;;;;;7.05;60.60;99946.00;5011997;28;20204;-78
2022/02/14 02:39:27;;;;;;;5.20;3.03;;;;;;;7.03;60.39;99937.38;5011528;28;20279;-77
2022/02/14 02:41:56;;;;;;;9.87;3.27;;;;;;;6.97;59.73;99930.50;5011503;28;20213;-78
2022/02/14 02:44:23;;;;;;;4.17;3.33;;;;;;;7.03;60.12;99927.00;5011934;28;20202;-79
2022/02/14 02:46:49;;;;;;;3.30;2.90;;;;;;;7.02;60.78;99909.72;5012076;28;20208;-77
2022/02/14 02:49:17;;;;;;;5.07;2.90;;;;;;;7.03;60.81;99896.69;5011155;28;20232;-78
2022/02/14 02:51:46;;;;;;;4.50;3.03;;;;;;;7.06;60.82;99894.06;5011833;28;20271;-78
2022/02/14 02:54:13;;;;;;;3.70;2.70;;;;;;;7.06;60.34;99888.88;5011662;28;20205;-77
2022/02/14 02:56:44;;;;;;;4.33;3.40;;;;;;;7.03;59.54;99894.09;5011704;28;20211;-77
2022/02/14 02:59:12;;;;;;;2.93;2.53;;;;;;;7.02;61.06;99892.41;5011831;28;20229;-77
2022/02/14 03:01:40;;;;;;;3.00;2.80;;;;;;;7.03;61.19;99880.28;5011196;28;20672;-77
2022/02/14 03:04:08;;;;;;;3.53;2.80;;;;;;;7.02;60.31;99870.78;5011102;28;20214;-78
2022/02/14 03:06:34;;;;;;;2.90;2.70;;;;;;;7.04;60.73;99875.06;5011961;28;20299;-78
2022/02/14 03:09:01;;;;;;;4.20;2.83;;;;;;;7.04;60.39;99879.41;5011194;28;20230;-78
2022/02/14 03:11:28;;;;;;;2.80;2.47;;;;;;;6.97;60.27;99876.03;5011111;28;20680;-77
2022/02/14 03:13:55;;;;;;;3.27;2.20;;;;;;;7.00;60.63;99854.34;5011585;28;20209;-77
2022/02/14 03:16:23;;;;;;;6.63;2.90;;;;;;;6.99;60.89;99844.88;5011859;28;20201;-78
2022/02/14 03:18:50;;;;;;;2.90;2.47;;;;;;;7.01;61.62;99832.72;5011076;28;20282;-78
2022/02/14 03:21:19;;;;;;;3.10;2.47;;;;;;;6.94;60.50;99843.19;5011240;28;20297;-78
2022/02/14 03:23:47;;;;;;;2.90;2.47;;;;;;;6.93;60.39;99836.28;5010938;28;20226;-79
2022/02/14 03:26:15;;;;;;;2.83;2.63;;;;;;;6.96;60.66;99827.63;5011264;28;20211;-78
2022/02/14 03:28:41;;;;;;;3.03;2.73;;;;;;;6.92;60.92;99833.72;5013301;28;20678;-77
2022/02/14 03:31:07;;;;;;;2.80;2.40;;;;;;;6.91;60.91;99832.00;5014493;28;20746;-78
2022/02/14 03:33:35;;;;;;;3.40;2.70;;;;;;;6.85;60.69;99835.53;5014688;28;20833;-78
2022/02/14 03:36:01;;;;;;;2.90;2.33;;;;;;;6.74;61.45;99817.53;5015029;28;20262;-77
2022/02/14 03:38:28;;;;;;;2.50;2.30;;;;;;;6.79;61.73;99812.28;5014876;28;20292;-79
2022/02/14 03:40:54;;;;;;;5.93;2.50;;;;;;;6.83;60.83;99839.03;5014367;28;20220;-78
2022/02/14 03:43:21;;;;;;;4.27;2.60;;;;;;;6.87;60.20;99838.97;5014745;28;20748;-79
2022/02/14 03:45:47;;;;;;;3.70;2.60;;;;;;;6.88;61.00;99827.72;5014670;28;20208;-76
2022/02/14 03:48:14;;;;;;;3.93;2.50;;;;;;;6.89;60.81;99815.59;5014110;28;20283;-77
2022/02/14 03:50:42;;;;;;;3.60;2.40;;;;;;;6.90;60.44;99817.34;5013975;28;20201;-77
2022/02/14 03:53:08;;;;;;;2.80;2.30;;;;;;;6.87;60.74;99827.75;5014666;28;20206;-78
2022/02/14 03:55:36;;;;;;;2.70;2.17;;;;;;;6.85;60.57;99817.38;5014595;28;20262;-77
2022/02/14 03:58:02;;;;;;;2.80;2.47;;;;;;;6.82;60.49;99814.84;5014498;28;20251;-78
2022/02/14 04:00:29;;;;;;;2.83;2.53;;;;;;;6.88;60.57;99813.91;5013986;28;20308;-78
2022/02/14 04:02:55;;;;;;;4.47;2.27;;;;;;;6.89;59.68;99810.41;5014372;28;20207;-78
2022/02/14 04:05:22;;;;;;;4.53;2.40;;;;;;;6.90;60.41;99820.78;5013871;28;20586;-77
2022/02/14 04:07:49;;;;;;;3.33;2.23;;;;;;;6.89;59.68;99824.22;5014432;28;20210;-76
2022/02/14 04:10:17;;;;;;;8.40;3.00;;;;;;;6.96;60.44;99828.47;5013841;28;20226;-78
2022/02/14 04:12:43;;;;;;;2.93;2.47;;;;;;;6.90;60.04;99820.78;5014274;28;20261;-78
2022/02/14 04:15:11;;;;;;;3.73;2.93;;;;;;;6.96;60.55;99825.03;5013992;28;20236;-79
2022/02/14 04:17:38;;;;;;;3.27;2.70;;;;;;;6.96;60.36;99822.44;5014094;28;20728;-77
2022/02/14 04:20:05;;;;;;;3.77;2.60;;;;;;;6.94;60.00;99821.59;5013168;28;20284;-78
2022/02/14 04:22:31;;;;;;;3.10;2.57;;;;;;;6.90;60.49;99822.53;5014198;28;20214;-78
2022/02/14 04:24:59;;;;;;;3.70;2.10;;;;;;;6.90;60.16;99817.34;5013424;28;20260;-78
2022/02/14 04:27:25;;;;;;;4.17;2.60;;;;;;;6.88;60.48;99817.34;5013666;28;20209;-78
2022/02/14 04:29:52;;;;;;;5.50;2.80;;;;;;;6.83;60.31;99818.28;5013720;28;20234;-78
2022/02/14 04:32:18;;;;;;;3.03;2.50;;;;;;;6.85;60.52;99825.16;5013930;28;20218;-77
2022/02/14 04:34:44;;;;;;;5.97;2.80;;;;;;;6.88;60.30;99811.31;5013659;28;20213;-77
2022/02/14 04:37:11;;;;;;;5.47;2.60;;;;;;;6.86;60.86;99798.34;5013528;28;20214;-78
2022/02/14 04:39:37;;;;;;;2.47;2.27;;;;;;;6.83;61.00;99792.34;5012656;28;20226;-78
2022/02/14 04:42:05;;;;;;;2.53;2.30;;;;;;;6.80;59.75;99798.44;5013265;28;20746;-78
2022/02/14 04:44:32;;;;;;;2.90;2.40;;;;;;;6.85;60.70;99803.56;5013777;28;20207;-78
2022/02/14 04:46:58;;;;;;;2.87;2.67;;;;;;;6.83;60.45;99795.78;5013640;28;20232;-78
2022/02/14 04:49:24;;;;;;;2.57;2.10;;;;;;;6.85;60.31;99796.63;5013046;28;20316;-78
2022/02/14 04:51:51;;;;;;;3.13;2.50;;;;;;;6.80;60.23;99801.03;5013381;28;20205;-79
2022/02/14 04:54:17;;;;;;;3.37;2.37;;;;;;;6.81;60.85;99801.88;5013238;28;20689;-78
2022/02/14 04:56:44;;;;;;;3.27;2.47;;;;;;;6.80;60.59;99795.84;5013225;28;20210;-78
2022/02/14 04:59:14;;;;;;;3.10;2.47;;;;;;;6.82;60.36;99795.81;5013418;28;20221;-78
2022/02/14 05:01:40;;;;;;;3.33;2.53;;;;;;;6.76;60.98;99789.84;5013104;28;20213;-78
2022/02/14 05:04:07;;;;;;;3.07;2.77;;;;;;;6.76;60.63;99789.00;5012718;28;20267;-77
2022/02/14 05:06:33;;;;;;;4.43;2.67;;;;;;;6.74;60.92;99788.16;5012808;28;20210;-78
2022/02/14 05:08:59;;;;;;;3.27;2.40;;;;;;;6.71;60.52;99802.00;5012908;28;20311;-79
2022/02/14 05:11:26;;;;;;;3.53;2.60;;;;;;;6.72;60.88;99803.72;5012905;28;20213;-77
2022/02/14 05:13:52;;;;;;;2.63;2.43;;;;;;;6.78;60.03;99799.31;5013282;28;20263;-78
2022/02/14 05:16:23;;;;;;;2.70;2.30;;;;;;;6.83;60.59;99790.59;5013083;28;20212;-78
2022/02/14 05:18:49;;;;;;;2.70;2.10;;;;;;;6.81;60.65;99801.88;5037350;23;20328;-80
2022/02/14 05:21:16;;;;;;;4.90;2.30;;;;;;;6.86;60.35;99789.72;5025033;28;20240;-79
2022/02/14 05:23:42;;;;;;;3.27;2.53;;;;;;;6.85;60.91;99794.03;5036078;28;20229;-79
2022/02/14 05:26:09;;;;;;;3.33;3.03;;;;;;;6.88;60.60;99796.59;5036457;28;20281;-79
2022/02/14 05:28:35;;;;;;;3.00;2.17;;;;;;;6.87;60.86;99792.28;5036529;28;20209;-80
2022/02/14 05:31:01;;;;;;;2.63;2.43;;;;;;;6.88;61.06;99796.59;5036104;28;20605;-80
2022/02/14 05:33:30;;;;;;;4.47;2.27;;;;;;;6.90;61.05;99791.38;5036506;28;20270;-80
2022/02/14 05:35:56;;;;;;;2.87;2.00;;;;;;;6.97;60.65;99793.84;5026482;28;20283;-80
2022/02/14 05:38:23;;;;;;;2.17;1.97;;;;;;;6.94;60.76;99773.16;5035540;28;20563;-79
2022/02/14 05:40:49;;;;;;;3.47;2.87;;;;;;;6.92;60.96;99769.72;5029201;28;20232;-81
2022/02/14 05:43:16;;;;;;;5.17;2.70;;;;;;;6.95;60.04;99782.63;5025444;28;20200;-80
2022/02/14 05:45:42;;;;;;;3.17;2.40;;;;;;;6.96;61.01;99765.34;5027801;28;20211;-81
2022/02/14 05:48:09;;;;;;;2.70;1.90;;;;;;;6.93;60.96;99768.81;5024686;28;20208;-80
2022/02/14 05:50:37;;;;;;;2.10;1.90;;;;;;;6.94;61.57;99772.31;5024172;28;20232;-80
2022/02/14 05:53:03;;;;;;;2.73;2.27;;;;;;;6.97;60.40;99780.03;5024946;28;20679;-80
2022/02/14 05:55:30;;;;;;;5.63;2.70;;;;;;;7.01;60.90;99775.66;5024976;28;20197;-79
2022/02/14 05:57:56;;;;;;;2.73;2.00;;;;;;;7.00;61.35;99759.22;5024194;28;20738;-80
2022/02/14 06:01:24;;;;;;;3.73;1.90;;;;;;;6.97;61.16;99752.31;5022348;28;20264;-79
2022/02/14 06:03:51;;;;;;;3.20;2.87;;;;;;;6.95;61.10;99740.28;5000053;28;20204;-80
2022/02/14 06:06:18;;;;;;;3.17;2.30;;;;;;;7.00;61.81;99735.00;5026086;28;20197;-79
2022/02/14 06:08:45;;;;;;;4.57;2.40;;;;;;;7.02;61.01;99754.88;5024098;28;20642;-79
2022/02/14 06:11:11;;;;;;;3.80;2.57;;;;;;;7.00;61.18;99756.63;5025340;28;20225;-80
2022/02/14 06:13:38;;;;;;;2.50;2.00;;;;;;;7.01;60.73;99760.09;5026220;28;20251;-80
2022/02/14 06:16:04;;;;;;;2.73;1.97;;;;;;;7.01;62.10;99740.16;5024286;28;20251;-80
2022/02/14 06:18:31;;;;;;;2.60;2.07;;;;;;;6.97;62.28;99728.13;5025401;28;20201;-80
2022/02/14 06:20:57;;;;;;;2.80;1.90;;;;;;;6.96;61.88;99729.03;5025805;28;20234;-80
2022/02/14 06:23:27;;;;;;;2.20;1.80;;;;;;;7.02;61.80;99708.16;5024184;28;20228;-79
2022/02/14 06:25:53;;;;;;;2.20;1.87;;;;;;;6.94;62.09;99704.84;5025289;28;20609;-80
2022/02/14 06:28:19;;;;;;;2.70;2.03;;;;;;;6.90;62.98;99706.63;5025786;28;20206;-80
2022/02/14 06:30:46;;;;;;;3.43;2.17;;;;;;;6.87;62.32;99723.97;5024386;28;20250;-80
2022/02/14 06:33:15;;;;;;;2.90;2.33;;;;;;;6.89;62.82;99741.22;5026842;28;20197;-80
2022/02/14 06:35:42;;;;;;;6.00;2.07;;;;;;;6.96;62.77;99744.59;5024189;28;20205;-80
2022/02/14 06:38:08;;;;;;;2.50;2.10;;;;;;;6.96;62.59;99739.41;5016140;28;20214;-79
2022/02/14 06:40:36;;;;;;;2.50;2.17;;;;;;;7.03;61.52;99750.53;5015276;28;20711;-79
2022/02/14 06:43:03;;;;;;;2.70;2.23;;;;;;;7.15;61.13;99774.56;5015929;28;20207;-79
2022/02/14 06:45:29;;;;;;;2.87;1.97;;;;;;;7.15;61.00;99781.47;5017846;28;20216;-79
2022/02/14 06:47:56;;;;;;;3.87;2.23;;;;;;;7.16;61.99;99767.63;5022990;28;20202;-80
2022/02/14 06:50:22;;;;;;;2.90;2.20;;;;;;;7.20;62.62;99771.91;5025122;28;20222;-79
2022/02/14 06:52:48;;;;;;;2.60;2.37;;;;;;;7.19;61.73;99784.88;5024002;28;20233;-80
2022/02/14 06:55:15;;;;;;;4.17;2.80;;;;;;;7.29;61.38;99791.66;5026812;28;20197;-79
2022/02/14 06:57:43;;;;;;;2.50;2.20;;;;;;;7.31;62.19;99795.06;5023605;28;20206;-80
2022/02/14 07:00:14;;;;;;;3.17;2.60;;;;;;;7.33;61.03;99811.47;5025193;28;20225;-80
2022/02/14 07:02:41;;;;;;;2.87;1.90;;;;;;;7.32;61.03;99800.25;5026571;28;20626;-80
2022/02/14 07:05:11;;;;;;;2.67;2.03;;;;;;;7.34;61.34;99811.47;5027954;28;20255;-79
2022/02/14 07:07:38;;;;;;;3.60;2.10;;;;;;;7.40;61.28;99807.06;5028066;28;20618;-80
2022/02/14 07:10:05;;;;;;;3.00;2.30;;;;;;;7.39;61.53;99801.00;5029525;28;20249;-80
2022/02/14 07:12:31;;;;;;;3.47;1.97;;;;;;;7.42;60.43;99789.72;5028182;28;20669;-80
2022/02/14 07:14:59;;;;;;;2.80;2.20;;;;;;;7.41;61.33;99788.00;5033541;28;20205;-80
2022/02/14 07:17:26;;;;;;;3.03;2.20;;;;;;;7.48;61.29;99790.47;5038937;28;20259;-80
2022/02/14 07:19:52;;;;;;;2.27;2.00;;;;;;;7.53;60.99;99785.19;5038130;28;20640;-80
2022/02/14 07:22:18;;;;;;;3.63;2.13;;;;;;;7.56;61.06;99774.75;5038814;28;20219;-80
2022/02/14 07:24:45;;;;;;;3.47;2.30;;;;;;;7.61;60.98;99775.53;5038951;28;20236;-80
2022/02/14 07:27:11;;;;;;;2.37;2.17;;;;;;;7.65;59.93;99790.19;5039611;28;20259;-80
2022/02/14 07:29:37;;;;;;;3.73;2.20;;;;;;;7.71;60.63;99792.69;5033136;28;20269;-80
2022/02/14 07:32:06;;;;;;;2.33;2.13;;;;;;;7.74;60.58;99787.41;5028650;28;20252;-80
2022/02/14 07:34:32;;;;;;;2.70;2.13;;;;;;;7.76;61.15;99767.47;5027941;28;20226;-80
2022/02/14 07:37:02;;;;;;;2.77;1.93;;;;;;;7.80;61.02;99762.22;5033125;28;20196;-79
2022/02/14 07:39:29;;;;;;;2.63;2.10;;;;;;;7.82;61.50;99755.25;5036080;28;20244;-78
2022/02/14 07:41:55;;;;;;;2.70;1.83;;;;;;;7.83;60.78;99765.63;5033261;28;20270;-78
2022/02/14 07:44:21;;;;;;;3.33;2.70;;;;;;;7.83;60.78;99754.34;5031682;28;20195;-79
2022/02/14 07:46:51;;;;;;;3.20;1.97;;;;;;;7.83;61.80;99752.63;5027114;28;20203;-79
2022/02/14 07:49:18;;;;;;;4.37;1.90;;;;;;;7.86;61.71;99739.56;5024427;28;20453;-79
2022/02/14 07:51:45;;;;;;;2.67;1.93;;;;;;;7.85;61.84;99756.06;5025961;28;20225;-79
2022/02/14 07:54:11;;;;;;;3.03;2.10;;;;;;;7.93;62.15;99746.38;5023791;28;20198;-79
2022/02/14 07:56:38;;;;;;;4.22;2.45;;;;;;;7.93;61.77;99748.13;5034925;28;20859;-78
2022/02/14 07:59:04;;;;;;;2.37;1.90;;;;;;;7.97;61.49;99728.97;5035427;28;20680;-79
2022/02/14 08:01:31;;;;;;;2.47;2.10;;;;;;;7.97;61.86;99747.16;5021733;28;20202;-78
2022/02/14 08:03:57;;;;;;;3.87;1.97;;;;;;;8.04;61.05;99743.53;5031173;28;20570;-78
2022/02/14 08:06:25;;;;;;;3.97;2.30;;;;;;;8.00;61.38;99730.66;5035481;28;20206;-79
2022/02/14 08:08:52;;;;;;;3.37;2.37;;;;;;;8.07;61.52;99694.13;5035400;28;20232;-78
2022/02/14 08:11:19;;;;;;;2.77;2.17;;;;;;;8.04;61.83;99693.31;5034971;28;20233;-79
2022/02/14 08:13:46;;;;;;;3.70;1.90;;;;;;;8.02;61.54;99708.94;5034300;28;20309;-79
2022/02/14 08:16:12;;;;;;;2.47;2.10;;;;;;;8.08;60.88;99720.94;5034992;28;20692;-78
2022/02/14 08:18:39;;;;;;;2.17;2.00;;;;;;;8.13;60.78;99738.16;5035444;28;20278;-78
2022/02/14 08:21:05;;;;;;;3.00;2.07;;;;;;;8.18;61.61;99732.88;5035157;28;20236;-78
2022/02/14 08:23:33;;;;;;;1.73;1.63;;;;;;;8.21;60.99;99751.03;5035653;28;20260;-79
2022/02/14 08:26:00;;;;;;;4.73;2.40;;;;;;;8.29;61.21;99736.13;5035231;28;20206;-78
2022/02/14 08:28:26;;;;;;;3.60;2.03;;;;;;;8.28;60.58;99739.59;5035092;28;20568;-78
2022/02/14 08:30:53;;;;;;;2.57;1.80;;;;;;;8.28;60.95;99756.94;5027075;28;20244;-78
2022/02/14 08:33:19;;;;;;;2.63;1.80;;;;;;;8.33;60.93;99731.72;5033730;28;20209;-78
2022/02/14 08:35:45;;;;;;;3.63;2.27;;;;;;;8.38;60.99;99721.19;5035815;28;20209;-78
2022/02/14 08:38:12;;;;;;;3.43;2.40;;;;;;;8.43;61.02;99732.41;5034880;28;20250;-79
2022/02/14 08:40:39;;;;;;;3.03;2.30;;;;;;;8.48;60.77;99727.94;5034029;28;20222;-79
2022/02/14 08:43:06;;;;;;;2.30;2.10;;;;;;;8.51;61.15;99718.34;5034464;28;20213;-78
2022/02/14 08:45:33;;;;;;;3.20;2.00;;;;;;;8.59;60.81;99731.16;5034034;28;20746;-79
2022/02/14 08:47:59;;;;;;;2.73;2.53;;;;;;;8.59;60.57;99720.75;5034556;28;20210;-79
2022/02/14 08:50:26;;;;;;;2.73;2.10;;;;;;;8.59;61.36;99720.75;5034207;28;20283;-78
2022/02/14 08:52:52;;;;;;;2.43;1.90;;;;;;;8.63;60.67;99722.41;5035123;28;20205;-79
2022/02/14 08:55:19;;;;;;;2.70;2.13;;;;;;;8.65;60.44;99719.78;5034315;28;20210;-79
2022/02/14 08:57:46;;;;;;;3.10;1.73;;;;;;;8.68;60.49;99722.28;5034070;28;20260;-79
2022/02/14 09:00:14;;;;;;;5.63;2.07;;;;;;;8.69;61.51;99719.66;5031847;28;20226;-78
2022/02/14 09:02:41;;;;;;;2.20;2.00;;;;;;;8.74;61.15;99717.81;5020247;28;20649;-79
2022/02/14 09:05:08;;;;;;;2.73;1.93;;;;;;;8.75;61.31;99716.06;5014719;28;20268;-78
2022/02/14 09:07:34;;;;;;;4.03;2.30;;;;;;;8.70;60.86;99728.31;5017791;28;20542;-79
2022/02/14 09:10:01;;;;;;;3.90;2.00;;;;;;;8.74;61.14;99737.75;5025427;28;20276;-78
2022/02/14 09:12:27;;;;;;;4.17;2.13;;;;;;;8.72;61.42;99726.53;5033608;28;20669;-79
2022/02/14 09:14:55;;;;;;;3.23;2.60;;;;;;;8.72;61.35;99716.13;5034168;28;20272;-78
2022/02/14 09:17:21;;;;;;;2.27;2.07;;;;;;;8.72;61.47;99731.72;5029816;28;20206;-79
2022/02/14 09:19:48;;;;;;;2.17;1.97;;;;;;;8.73;60.83;99723.91;5028345;28;20380;-79
2022/02/14 09:22:14;;;;;;;2.47;1.97;;;;;;;8.73;60.91;99726.50;5033631;28;20206;-79
2022/02/14 09:24:41;;;;;;;5.20;2.53;;;;;;;8.71;61.39;99724.84;5033961;28;20708;-79
2022/02/14 09:27:07;;;;;;;3.40;2.50;;;;;;;8.74;61.09;99716.94;5032689;28;20928;-78
2022/02/14 09:29:33;;;;;;;4.20;3.10;;;;;;;8.78;61.44;99704.72;5033535;28;20226;-78
2022/02/14 09:32:02;;;;;;;1.93;1.80;;;;;;;8.79;61.61;99714.25;5034476;28;20234;-79
2022/02/14 09:34:28;;;;;;;2.37;1.80;;;;;;;8.82;61.87;99701.16;5034050;28;20568;-79
2022/02/14 09:36:56;;;;;;;3.85;2.50;;;;;;;8.85;61.84;99706.31;5033211;28;20441;-79
2022/02/14 09:39:24;;;;;;;4.23;2.60;;;;;;;8.90;62.03;99707.03;5033356;28;20233;-79
2022/02/14 09:41:51;;;;;;;2.37;2.00;;;;;;;8.91;61.94;99699.19;5033445;28;20206;-79
2022/02/14 09:44:17;;;;;;;2.03;1.80;;;;;;;8.90;61.48;99712.22;5033341;28;20244;-79
2022/02/14 09:46:43;;;;;;;2.43;1.70;;;;;;;8.93;61.79;99700.00;5033295;28;20205;-79
2022/02/14 09:49:12;;;;;;;2.43;2.03;;;;;;;8.93;61.38;99691.34;5025192;28;20670;-79
2022/02/14 09:51:38;;;;;;;2.97;2.10;;;;;;;8.97;61.75;99684.31;5033420;28;20615;-79
2022/02/14 09:54:06;;;;;;;6.80;1.87;;;;;;;9.04;61.34;99699.75;5033302;28;20259;-79
2022/02/14 09:56:35;;;;;;;2.10;1.90;;;;;;;9.07;61.60;99671.03;5033695;28;20236;-79
2022/02/14 09:59:01;;;;;;;3.77;2.20;;;;;;;9.15;61.31;99696.88;5033800;28;20244;-79
2022/02/14 10:01:28;;;;;;;1.63;1.43;;;;;;;9.12;61.45;99694.38;5033244;28;20205;-79
2022/02/14 10:03:57;;;;;;;4.17;2.33;;;;;;;9.17;61.98;99692.50;5033243;28;20232;-79
2022/02/14 10:06:29;;;;;;;3.03;1.87;;;;;;;9.18;61.96;99688.13;5033433;28;20695;-79
2022/02/14 10:09:06;;;;;;;3.50;2.10;;;;;;;9.25;62.36;99684.47;5033777;28;20202;-78
2022/02/14 10:11:34;;;;;;;3.23;1.97;;;;;;;9.30;61.72;99691.28;5033124;28;20229;-78
2022/02/14 10:14:14;;;;;;;3.47;2.10;;;;;;;9.36;62.32;99685.06;5032894;28;20663;-78
2022/02/14 10:16:57;;;;;;;2.67;2.00;;;;;;;9.42;61.66;99682.31;5033791;28;20205;-78
2022/02/14 10:19:24;;;;;;;2.37;1.97;;;;;;;9.49;62.10;99686.47;5025076;28;20219;-78
2022/02/14 10:21:54;;;;;;;2.30;1.83;;;;;;;9.59;61.99;99694.00;5033703;28;20206;-79
2022/02/14 10:24:21;;;;;;;2.43;1.83;;;;;;;9.64;62.03;99711.25;5033803;28;20212;-78
2022/02/14 10:26:49;;;;;;;2.60;2.00;;;;;;;9.74;61.85;99717.91;5033406;28;20206;-79
2022/02/14 10:29:19;;;;;;;3.20;2.23;;;;;;;9.82;61.74;99720.31;5033306;28;20316;-79
2022/02/14 10:31:47;;;;;;;2.77;2.10;;;;;;;9.88;62.04;99720.13;5033320;28;20325;-79
2022/02/14 10:34:15;;;;;;;2.63;2.43;;;;;;;10.05;62.36;99721.41;5024695;28;20199;-81
2022/02/14 10:36:43;;;;;;;2.43;2.20;;;;;;;10.23;61.06;99714.84;5024019;28;20222;-79
2022/02/14 10:39:13;;;;;;;2.83;2.03;;;;;;;10.42;60.79;99757.75;5027241;28;20218;-80
2022/02/14 10:41:40;;;;;;;3.47;2.00;;;;;;;10.55;61.27;99750.44;5026771;28;20258;-80
2022/02/14 10:44:09;;;;;;;1.90;1.80;;;;;;;10.64;61.83;99751.91;5027521;28;20229;-80
2022/02/14 10:46:36;;;;;;;3.70;2.10;;;;;;;10.65;60.58;99753.63;5029279;28;20198;-80
2022/02/14 10:49:04;;;;;;;3.17;1.90;;;;;;;10.63;60.56;99760.66;5026169;28;20868;-80
2022/02/14 10:51:31;;;;;;;2.53;2.20;;;;;;;10.66;60.83;99750.09;5027075;28;20270;-80
2022/02/14 10:53:58;;;;;;;2.47;1.90;;;;;;;10.69;60.89;99750.88;5028513;28;20203;-81
2022/02/14 10:56:26;;;;;;;3.17;2.20;;;;;;;10.72;60.63;99753.41;5027038;28;20195;-80
2022/02/14 10:59:14;;;;;;;2.23;1.73;;;;;;;10.72;60.26;99765.56;5025390;28;20206;-79
2022/02/14 11:01:41;;;;;;;2.90;2.03;;;;;;;10.80;61.13;99736.63;5025632;28;20282;-79
2022/02/14 11:04:08;;;;;;;2.83;1.87;;;;;;;10.89;61.01;99731.13;5026263;28;20224;-80
2022/02/14 11:06:36;;;;;;;2.30;2.03;;;;;;;11.02;61.02;99739.41;5027579;28;20205;-80
2022/02/14 11:09:04;;;;;;;2.90;1.93;;;;;;;11.15;60.24;99747.72;5026187;28;20230;-81
2022/02/14 11:11:35;;;;;;;3.13;2.13;;;;;;;11.29;59.28;99777.69;5025656;28;20268;-80
2022/02/14 11:14:02;;;;;;;3.97;2.20;;;;;;;11.43;59.76;99802.53;5024548;28;20259;-80
2022/02/14 11:16:32;;;;;;;3.03;2.20;;;;;;;11.54;58.85;99800.44;5028766;28;20209;-80
2022/02/14 11:19:02;;;;;;;2.43;2.23;;;;;;;11.71;59.41;99787.66;5024390;28;20199;-81
2022/02/14 11:21:32;;;;;;;2.10;1.90;;;;;;;11.89;59.13;99787.94;5026466;28;20203;-80
2022/02/14 11:24:08;;;;;;;4.20;2.43;;;;;;;11.94;59.55;99783.41;5026066;28;20285;-80
2022/02/14 11:26:43;;;;;;;2.87;2.20;;;;;;;11.99;59.22;99804.16;5026315;28;20199;-79
2022/02/14 11:29:20;;;;;;;2.60;2.40;;;;;;;12.05;58.62;99799.59;5051357;23;20241;-78
2022/02/14 11:31:46;;;;;;;2.23;2.03;;;;;;;12.13;58.70;99812.41;5031093;28;20256;-78
2022/02/14 11:34:13;;;;;;;2.27;1.90;;;;;;;12.15;58.81;99807.09;5033011;28;20669;-78
2022/02/14 11:36:39;;;;;;;1.93;1.73;;;;;;;12.04;58.27;99823.16;5031602;28;20194;-77
2022/02/14 11:39:06;;;;;;;3.43;1.90;;;;;;;11.97;58.02;99814.69;5026864;28;20222;-78
2022/02/14 11:41:35;;;;;;;2.17;1.90;;;;;;;11.81;58.06;99809.06;5025152;28;20258;-78
2022/02/14 11:44:20;;;;;;;3.33;1.83;;;;;;;11.80;58.88;99788.22;5023382;28;20203;-78